Date,TemperatureHighF,TemperatureAvgF,TemperatureLowF,DewpointHighF,DewpointAvgF,DewpointLowF,HumidityHigh,HumidityAvg,HumidityLow,PressureMaxIn,PressureMinIn,WindSpeedMaxMPH,WindSpeedAvgMPH,GustSpeedMaxMPH,PrecipitationSumIn
2013-1-1,40.5,34.4,25.7,31.5,25.8,14.8,78,71,62,29.93,29.75,0,-999,0,0.00
2013-1-2,34.9,26.7,20.5,19.8,16.0,12.4,74,64,51,30.10,29.91,0,-999,0,0.00
2013-1-3,32.2,26.6,20.1,20.4,17.5,14.6,81,68,56,30.11,29.98,0,-999,0,0.00
2013-1-4,37.8,31.4,21.6,25.9,21.8,16.2,82,68,57,30.01,29.88,0,-999,0,0.00
2013-1-5,41.7,33.1,27.0,25.4,22.4,19.1,78,65,50,30.21,29.95,0,-999,0,0.00
2013-1-6,45.5,37.8,30.7,33.4,28.3,23.9,87,69,54,30.13,29.88,0,-999,0,0.00
2013-1-7,44.4,34.4,23.7,32.8,25.1,19.3,85,70,49,30.31,29.98,0,-999,0,0.00
2013-1-8,46.9,31.7,21.6,34.9,25.9,18.6,91,80,59,30.33,30.24,0,-999,0,0.00
2013-1-9,45.5,36.6,24.3,38.7,31.5,21.7,92,82,73,30.30,30.05,0,-999,0,0.00
2013-1-10,48.4,39.6,32.7,33.3,28.1,24.3,76,64,45,30.45,30.19,0,-999,0,0.00
2013-1-11,48.0,40.0,32.4,42.6,34.2,25.0,95,80,66,30.43,29.98,0,-999,0,0.00
2013-1-12,50.4,44.2,39.7,46.4,42.2,38.1,95,93,85,30.07,29.98,0,-999,0,0.00
2013-1-13,48.4,45.5,42.6,46.4,44.0,41.0,96,95,92,30.06,29.89,0,-999,0,0.00
2013-1-14,56.8,47.5,37.2,53.8,42.7,32.2,97,84,58,30.20,29.79,0,-999,0,0.00
2013-1-15,40.3,36.8,33.3,34.6,31.9,29.0,92,82,72,30.25,30.08,0,-999,0,0.00
2013-1-16,35.4,33.4,31.8,33.8,31.8,30.1,95,94,90,30.08,29.71,0,-999,0,0.00
2013-1-17,45.5,38.0,34.3,34.8,30.9,25.8,94,76,59,30.00,29.82,0,-999,0,0.00
2013-1-18,34.3,28.0,21.2,26.2,16.0,9.1,75,61,43,30.39,29.93,0,-999,0,0.00
2013-1-19,51.3,33.8,20.5,32.4,24.5,14.0,83,70,45,30.31,29.79,0,-999,0,0.00
2013-1-20,54.3,37.1,27.3,34.0,22.9,11.9,89,59,32,29.96,29.61,0,-999,0,0.00
2013-1-21,34.7,27.1,18.7,17.6,13.4,9.2,73,56,46,30.00,29.75,0,-999,0,0.00
2013-1-22,23.9,18.0,11.5,9.2,1.8,-3.5,59,49,38,30.14,29.77,0,-999,0,0.00
2013-1-23,23.4,13.2,8.2,4.7,0.2,-3.3,74,56,39,30.18,30.07,0,-999,0,0.00
2013-1-24,25.2,14.9,7.0,10.5,2.5,-1.6,80,60,36,30.35,30.03,0,-999,0,0.00
2013-1-25,26.8,16.5,10.6,13.7,5.6,-2.0,84,63,44,30.36,29.98,0,-999,0,0.00
2013-1-26,27.5,17.6,7.9,14.9,8.5,3.8,85,69,48,30.32,29.97,0,-999,0,0.00
2013-1-27,34.2,20.8,7.7,17.0,10.9,3.0,84,67,45,30.46,30.32,0,-999,0,0.00
2013-1-28,34.0,28.7,19.6,32.1,24.5,12.5,93,84,72,30.41,29.92,0,-999,0,0.00
2013-1-29,55.2,42.3,33.8,46.4,38.6,31.9,94,87,69,30.04,29.92,0,-999,0,0.00
2013-1-30,65.8,52.1,41.2,60.2,49.8,39.6,96,92,80,29.94,29.15,0,-999,0,0.00
2013-1-31,60.6,42.3,26.2,59.0,32.0,13.3,96,68,45,29.73,28.94,0,-999,0,0.00
2013-2-1,33.6,26.1,20.7,17.6,13.3,8.6,68,58,40,30.18,29.71,0,-999,0,0.00
2013-2-2,31.8,22.9,14.9,19.9,12.1,6.4,87,64,40,30.23,29.93,0,-999,0,0.00
2013-2-3,34.9,25.5,19.2,24.6,19.9,16.1,89,80,64,29.93,29.71,0,-999,0,0.00
2013-2-4,32.2,25.3,20.5,19.6,14.7,10.5,78,65,45,29.90,29.75,0,-999,0,0.00
2013-2-5,33.6,29.0,25.5,26.9,24.5,19.6,90,83,75,29.88,29.80,0,-999,0,0.00
2013-2-6,40.6,30.5,23.4,30.7,22.5,12.1,93,73,52,30.28,29.82,0,-999,0,0.00
2013-2-7,36.3,28.0,19.6,21.2,15.8,11.2,73,61,46,30.41,30.19,0,-999,0,0.00
2013-2-8,34.3,31.7,29.5,31.6,27.9,21.0,93,86,67,30.18,29.57,0,-999,0,0.00
2013-2-9,33.6,26.8,16.9,28.6,18.1,6.7,93,71,46,30.29,29.68,0,-999,0,0.00
2013-2-10,37.2,25.4,13.3,21.3,14.5,7.1,80,64,43,30.40,30.21,0,-999,0,0.00
2013-2-11,41.9,35.0,28.8,38.9,31.4,20.9,94,87,72,30.21,29.56,0,-999,0,0.00
2013-2-12,47.5,37.6,27.7,35.1,27.8,21.4,94,69,51,29.89,29.64,0,-999,0,0.00
2013-2-13,46.4,34.1,22.8,32.8,26.4,19.5,90,75,51,29.87,29.58,0,-999,0,0.00
2013-2-14,45.7,34.6,26.8,37.6,28.4,23.1,94,79,51,29.91,29.63,0,-999,0,0.00
2013-2-15,56.8,39.1,25.7,41.2,30.6,23.0,93,74,44,29.93,29.81,0,-999,0,0.00
2013-2-16,42.4,34.6,28.2,32.5,24.6,12.7,92,68,50,29.89,29.64,0,-999,0,0.00
2013-2-17,37.6,25.9,17.4,12.9,7.5,1.6,53,46,32,29.98,29.61,0,-999,0,0.00
2013-2-18,35.4,24.4,15.4,13.5,8.2,2.0,61,50,38,30.19,29.97,0,-999,0,0.00
2013-2-19,47.3,33.3,21.6,39.5,26.4,12.4,93,76,51,30.09,29.60,0,-999,0,0.00
2013-2-20,34.3,29.1,22.8,26.0,16.2,10.7,74,59,46,29.93,29.66,0,-999,0,0.00
2013-2-21,36.1,27.1,21.4,17.5,14.1,11.1,69,58,45,30.21,29.90,0,-999,0,0.00
2013-2-22,39.9,30.2,20.5,28.1,21.3,12.6,80,70,53,30.32,30.16,0,-999,0,0.00
2013-2-23,41.7,37.6,33.1,39.8,35.3,28.1,95,92,80,30.16,29.71,0,-999,0,0.00
2013-2-24,52.0,37.0,28.9,43.8,30.6,21.7,95,78,55,29.93,29.67,0,-999,0,0.00
2013-2-25,50.9,35.1,26.2,33.8,25.9,21.2,86,70,50,30.15,29.93,0,-999,0,0.00
2013-2-26,48.0,36.0,26.4,34.9,30.0,23.3,94,80,56,30.19,29.73,0,-999,0,0.00
2013-2-27,50.9,41.5,36.3,47.1,38.5,34.7,95,89,76,29.73,29.41,0,-999,0,0.00
2013-2-28,50.0,40.4,34.2,39.8,33.8,28.5,92,78,57,29.54,29.45,0,-999,0,0.00
2013-3-1,51.6,37.8,28.9,36.4,28.8,24.8,92,71,51,29.71,29.53,0,-999,0,0.00
2013-3-2,44.1,34.6,28.2,27.4,23.8,20.9,76,65,50,29.71,29.62,0,-999,0,0.00
2013-3-3,39.9,31.8,26.4,22.6,19.7,15.8,70,61,47,29.71,29.60,0,-999,0,0.00
2013-3-4,46.6,34.7,26.2,27.0,20.3,15.6,69,56,42,29.86,29.69,0,-999,0,0.00
2013-3-5,52.5,38.0,27.9,29.8,24.7,20.3,75,60,38,29.94,29.85,0,-999,0,0.00
2013-3-6,42.6,38.2,34.3,35.8,31.0,26.8,87,76,64,29.86,29.72,0,-999,0,0.00
2013-3-7,45.7,37.1,32.2,33.2,29.1,25.3,90,74,55,30.01,29.83,0,-999,0,0.00
2013-3-8,43.5,35.0,29.8,35.9,29.6,25.3,92,81,65,30.12,29.93,0,-999,0,0.00
2013-3-9,62.6,41.7,28.6,33.4,22.4,12.2,78,51,20,30.23,30.09,0,-999,0,0.00
2013-3-10,58.5,39.8,25.9,38.8,29.6,19.3,88,68,43,30.29,30.18,0,-999,0,0.00
2013-3-11,61.3,46.4,33.8,47.4,40.4,30.0,92,81,52,30.23,29.97,0,-999,0,0.00
2013-3-12,58.6,51.2,41.5,56.9,48.5,36.7,96,91,79,29.97,29.57,0,-999,0,0.00
2013-3-13,63.3,43.2,32.9,38.4,31.7,23.7,90,66,38,29.81,29.71,0,-999,0,0.00
2013-3-14,44.2,35.2,29.1,23.9,16.0,9.9,63,46,30,29.88,29.76,0,-999,0,0.00
2013-3-15,55.0,38.6,25.2,30.9,21.4,11.8,65,50,32,29.90,29.62,0,-999,0,0.00
2013-3-16,43.5,35.7,30.2,32.0,27.5,21.4,89,73,52,29.82,29.67,0,-999,0,0.00
2013-3-17,42.6,34.0,26.6,30.2,22.3,16.9,91,65,42,30.21,29.82,0,-999,0,0.00
2013-3-18,41.0,30.8,24.1,31.1,21.4,11.5,94,69,45,30.30,29.88,0,-999,0,0.00
2013-3-19,49.6,39.1,32.7,41.0,32.9,20.1,95,80,50,29.88,29.59,0,-999,0,0.00
2013-3-20,52.5,38.5,28.6,25.5,20.9,18.2,69,50,34,29.81,29.69,0,-999,0,0.00
2013-3-21,44.2,34.9,27.1,27.1,20.1,13.8,85,57,35,29.74,29.54,0,-999,0,0.00
2013-3-22,48.6,34.6,24.4,26.4,19.5,13.1,73,55,37,29.81,29.65,0,-999,0,0.00
2013-3-23,56.8,39.4,28.9,29.0,21.3,17.2,69,50,32,29.85,29.75,0,-999,0,0.00
2013-3-24,58.8,40.3,25.2,27.6,21.7,16.5,72,49,28,29.86,29.60,0,-999,0,0.00
2013-3-25,40.1,36.8,33.4,35.4,30.1,24.8,91,77,60,29.60,29.38,0,-999,0,0.00
2013-3-26,57.9,42.4,33.6,40.9,31.6,26.5,91,68,41,29.79,29.51,0,-999,0,0.00
2013-3-27,63.3,42.0,28.0,38.6,28.4,23.7,85,62,35,29.91,29.78,0,-999,0,0.00
2013-3-28,62.4,43.3,28.2,38.4,29.3,24.0,87,60,36,30.03,29.88,0,-999,0,0.00
2013-3-29,70.3,45.6,31.6,39.7,28.9,25.6,80,55,27,30.07,29.98,0,-999,0,0.00
2013-3-30,72.5,46.5,29.5,41.2,26.7,19.6,87,52,25,30.09,29.96,0,-999,0,0.00
2013-3-31,60.4,43.9,28.2,42.6,32.9,20.9,93,68,36,30.03,29.59,0,-999,0,0.00
2013-4-1,65.8,48.7,34.5,53.2,36.5,13.5,95,67,37,29.83,29.54,0,-999,0,0.00
2013-4-2,52.9,37.7,26.1,21.4,15.6,12.5,60,42,27,30.00,29.83,0,-999,0,0.00
2013-4-3,54.1,38.7,26.4,22.4,15.2,9.6,57,39,26,30.22,30.00,0,-999,0,0.00
2013-4-4,61.0,42.7,26.2,29.3,20.7,12.0,63,43,27,30.31,29.98,0,-999,0,0.00
2013-4-5,71.2,51.0,38.5,40.4,26.5,19.0,72,42,23,29.99,29.62,0,-999,0,0.00
2013-4-6,63.3,44.4,31.8,25.6,18.4,12.9,62,38,20,30.21,29.91,0,-999,0,0.00
2013-4-7,66.6,50.7,34.3,43.1,34.7,24.4,78,57,32,30.21,29.88,0,-999,0,0.00
2013-4-8,85.3,61.8,41.7,53.0,44.8,38.1,89,59,29,29.98,29.86,0,-999,0,0.00
2013-4-9,83.5,68.8,51.6,58.9,46.5,39.5,84,50,22,29.88,29.78,0,-999,0,0.00
2013-4-10,92.7,67.5,55.8,61.9,53.2,47.5,94,63,31,29.84,29.69,0,-999,0,0.00
2013-4-11,63.5,56.6,47.5,57.8,51.5,42.1,95,84,65,29.92,29.67,0,-999,0,0.00
2013-4-12,48.4,43.5,41.2,42.3,40.8,39.6,95,90,75,29.89,29.61,0,-999,0,0.00
2013-4-13,68.4,49.9,37.0,54.2,39.0,34.7,96,70,43,29.88,29.64,0,-999,0,0.00
2013-4-14,69.8,52.8,40.1,44.0,35.1,30.0,88,55,29,30.10,29.87,0,-999,0,0.00
2013-4-15,64.2,52.0,42.1,39.5,34.5,28.5,72,52,36,30.27,30.10,0,-999,0,0.00
2013-4-16,77.7,60.3,46.0,58.1,49.7,39.2,86,70,48,30.26,30.00,0,-999,0,0.00
2013-4-17,78.4,62.4,50.9,56.0,44.6,34.2,92,57,26,30.19,30.01,0,-999,0,0.00
2013-4-18,60.6,53.0,45.0,51.9,45.3,38.3,91,76,58,30.23,29.98,0,-999,0,0.00
2013-4-19,82.6,66.6,54.7,67.5,60.4,52.1,94,82,57,29.99,29.51,0,-999,0,0.00
2013-4-20,60.1,52.0,43.7,53.5,38.0,25.4,94,62,38,30.21,29.60,0,-999,0,0.00
2013-4-21,66.4,46.5,32.9,32.9,25.0,19.8,64,45,27,30.52,30.21,0,-999,0,0.00
2013-4-22,65.8,45.8,30.6,39.0,32.5,26.6,88,62,34,30.55,30.38,0,-999,0,0.00
2013-4-23,52.9,45.4,39.0,43.5,36.9,31.4,87,72,61,30.38,30.02,0,-999,0,0.00
2013-4-24,79.9,56.6,33.3,56.0,46.2,31.0,93,71,41,30.03,29.69,0,-999,0,0.00
2013-4-25,75.7,56.6,42.4,54.1,34.6,27.8,82,46,25,30.17,29.75,0,-999,0,0.00
2013-4-26,78.6,53.5,34.9,45.8,32.9,27.5,86,50,25,30.31,30.16,0,-999,0,0.00
2013-4-27,85.3,56.6,37.2,45.1,34.9,29.4,78,48,22,30.34,30.16,0,-999,0,0.00
2013-4-28,87.1,58.7,38.1,52.2,38.7,31.0,85,51,27,30.21,30.07,0,-999,0,0.00
2013-4-29,54.7,52.2,50.2,50.8,48.0,38.2,95,86,55,30.13,30.06,0,-999,0,0.00
2013-4-30,69.6,56.5,42.1,52.2,43.1,28.3,95,65,27,30.23,30.09,0,-999,0,0.00
2013-5-1,86.7,54.7,35.4,47.8,37.8,29.5,86,58,21,30.38,30.23,0,-999,0,0.00
2013-5-2,87.6,58.7,37.8,56.8,42.6,35.3,92,61,31,30.37,30.22,0,-999,0,0.00
2013-5-3,80.8,57.9,44.6,50.1,41.7,37.0,82,58,30,30.35,30.24,0,-999,0,0.00
2013-5-4,88.3,56.0,39.0,54.9,42.4,36.6,92,65,28,30.28,30.11,0,-999,0,0.00
2013-5-5,81.1,53.6,39.0,50.4,41.6,35.2,89,67,33,30.19,30.11,0,-999,0,0.00
2013-5-6,73.2,57.2,42.1,55.4,48.1,38.8,90,73,49,30.16,30.04,0,-999,0,0.00
2013-5-7,86.0,61.7,45.0,61.0,53.5,42.8,94,77,41,30.07,29.97,0,-999,0,0.00
2013-5-8,74.1,62.1,54.1,65.3,58.7,51.7,96,89,70,29.98,29.83,0,-999,0,0.00
2013-5-9,77.4,61.5,53.2,65.5,55.9,51.2,97,83,61,29.89,29.79,0,-999,0,0.00
2013-5-10,99.0,68.8,49.3,69.2,56.9,47.6,96,70,36,29.90,29.78,0,-999,0,0.00
2013-5-11,79.3,65.4,58.8,69.2,62.1,56.8,96,89,69,29.81,29.60,0,-999,0,0.00
2013-5-12,81.1,60.8,47.7,58.4,44.7,29.6,96,61,30,29.86,29.57,0,-999,0,0.00
2013-5-13,72.7,50.2,38.5,39.3,31.8,26.9,78,52,28,30.03,29.85,0,-999,0,0.00
2013-5-14,80.4,50.9,32.2,45.2,32.0,26.6,88,54,24,30.06,29.92,0,-999,0,0.00
2013-5-15,79.9,60.4,40.6,59.9,48.7,32.6,83,67,49,29.97,29.58,0,-999,0,0.00
2013-5-16,88.0,68.3,53.4,66.1,56.4,46.9,94,69,40,29.74,29.61,0,-999,0,0.00
2013-5-17,81.7,65.2,52.2,50.0,43.8,39.4,70,48,29,30.09,29.74,0,-999,0,0.00
2013-5-18,73.2,58.8,51.3,57.3,51.2,43.2,86,76,56,30.20,30.09,0,-999,0,0.00
2013-5-19,60.6,57.0,54.1,59.0,55.3,52.7,96,94,86,30.19,30.06,0,-999,0,0.00
2013-5-20,85.8,69.8,56.8,70.9,63.4,55.7,97,82,58,30.08,29.85,0,-999,0,0.00
2013-5-21,96.1,75.7,59.2,77.5,67.3,57.7,96,78,53,29.88,29.74,0,-999,0,0.00
2013-5-22,91.9,74.2,63.7,75.6,67.5,62.0,96,81,52,29.82,29.70,0,-999,0,0.00
2013-5-23,86.2,72.5,66.7,75.2,68.5,65.5,96,88,65,29.78,29.64,0,-999,0,0.00
2013-5-24,66.7,54.6,43.5,65.5,52.1,41.4,98,92,79,29.89,29.59,0,-999,0,0.00
2013-5-25,63.1,51.7,42.4,47.9,41.1,35.5,96,70,44,29.93,29.83,0,-999,0,0.00
2013-5-26,81.0,58.8,43.9,46.4,38.2,31.8,80,50,25,30.11,29.90,0,-999,0,0.00
2013-5-27,91.0,60.6,38.1,50.4,41.3,32.9,88,54,22,30.16,30.03,0,-999,0,0.00
2013-5-28,63.7,55.9,47.3,56.8,52.0,43.7,96,87,68,30.12,30.01,0,-999,0,0.00
2013-5-29,94.1,71.8,57.0,74.5,63.6,55.9,97,78,44,30.02,29.90,0,-999,0,0.00
2013-5-30,106.3,81.2,65.5,77.5,66.4,62.8,94,65,36,30.04,29.95,0,-999,0,0.00
2013-5-31,108.7,81.5,64.2,77.7,66.6,61.2,94,65,35,30.03,29.88,0,-999,0,0.00
2013-6-1,109.0,80.8,62.8,77.8,67.2,60.5,94,67,36,29.92,29.78,0,-999,0,0.00
2013-6-2,100.6,81.2,69.3,75.0,69.5,65.9,90,70,42,29.80,29.67,0,-999,0,0.00
2013-6-3,93.4,75.2,65.1,74.0,66.1,54.5,95,75,48,29.78,29.68,0,-999,0,0.00
2013-6-4,93.7,68.2,53.8,56.2,47.5,43.0,74,50,27,30.01,29.78,0,-999,0,0.00
2013-6-5,89.4,65.5,47.5,57.2,47.9,41.5,84,56,31,30.10,30.00,0,-999,0,0.00
2013-6-6,86.4,63.8,50.9,63.7,56.2,48.2,96,79,44,30.04,29.88,0,-999,0,0.00
2013-6-7,63.3,60.6,58.8,62.5,59.8,57.7,98,97,96,29.88,29.49,0,-999,0,0.00
2013-6-8,85.5,69.1,56.8,70.1,62.3,56.1,99,81,54,29.95,29.49,0,-999,0,0.00
2013-6-9,99.3,72.9,55.6,68.7,60.3,54.0,96,69,36,30.07,29.95,0,-999,0,0.00
2013-6-10,71.2,65.7,63.3,67.8,63.6,59.2,99,93,85,30.05,29.68,0,-999,0,0.00
2013-6-11,91.8,75.1,66.0,73.2,66.7,60.3,99,78,54,29.69,29.53,0,-999,0,0.00
2013-6-12,94.5,73.6,62.8,63.5,58.3,55.3,83,62,34,29.74,29.62,0,-999,0,0.00
2013-6-13,67.8,62.2,56.3,64.6,59.6,55.0,96,91,82,29.74,29.31,0,-999,0,0.00
2013-6-14,79.3,61.4,52.9,63.9,55.7,51.5,97,84,50,29.80,29.43,0,-999,0,0.00
2013-6-15,98.2,69.9,51.6,68.5,56.9,50.2,97,69,37,29.92,29.80,0,-999,0,0.00
2013-6-16,93.4,71.5,54.7,67.8,60.7,52.7,95,72,39,29.89,29.68,0,-999,0,0.00
2013-6-17,103.1,74.7,61.5,75.7,65.7,60.0,95,77,40,29.82,29.73,0,-999,0,0.00
2013-6-18,102.4,71.1,60.8,76.8,65.5,59.4,96,85,43,29.79,29.69,0,-999,0,0.00
2013-6-19,91.8,70.0,56.5,61.4,55.7,50.8,97,66,30,30.05,29.77,0,-999,0,0.00
2013-6-20,97.5,71.2,52.9,68.2,57.9,50.9,94,67,39,30.16,30.05,0,-999,0,0.00
2013-6-21,100.2,73.1,54.3,68.0,58.1,51.7,92,63,32,30.20,30.11,0,-999,0,0.00
2013-6-22,98.2,74.2,54.7,72.2,61.8,51.8,93,68,41,30.16,30.00,0,-999,0,0.00
2013-6-23,105.1,78.1,61.2,77.2,67.8,59.1,95,74,40,30.09,29.94,0,-999,0,0.00
2013-6-24,108.1,79.5,67.3,78.3,69.7,61.9,97,76,38,29.97,29.84,0,-999,0,0.00
2013-6-25,106.3,79.8,64.4,78.7,69.6,63.1,97,74,40,29.90,29.71,0,-999,0,0.00
2013-6-26,92.1,79.5,70.5,73.0,69.1,64.0,91,72,48,29.75,29.67,0,-999,0,0.00
2013-6-27,104.7,80.7,67.5,77.3,71.7,65.9,97,78,40,29.71,29.44,0,-999,0,0.00
2013-6-28,97.5,78.7,69.3,77.0,70.6,65.6,98,78,47,29.46,29.36,0,-999,0,0.00
2013-6-29,102.4,78.9,64.8,76.5,67.2,63.0,96,71,39,29.59,29.38,0,-999,0,0.00
2013-6-30,91.8,77.0,66.7,78.6,71.3,64.3,94,83,63,29.79,29.59,0,-999,0,0.00
2013-7-1,84.4,75.3,70.9,77.1,72.9,69.7,97,92,79,29.92,29.77,0,-999,0,0.00
2013-7-2,91.0,78.9,71.4,79.4,73.9,69.9,98,85,64,30.06,29.91,0,-999,0,0.00
2013-7-3,94.3,79.3,70.0,80.8,73.3,68.4,96,83,58,30.14,30.05,0,-999,0,0.00
2013-7-4,101.8,82.6,71.2,82.5,74.2,70.1,98,78,51,30.14,30.03,0,-999,0,0.00
2013-7-5,108.7,84.3,70.0,82.1,73.1,68.4,97,72,42,30.11,29.98,0,-999,0,0.00
2013-7-6,110.8,85.2,71.4,81.6,73.6,69.9,96,72,36,30.03,29.90,0,-999,0,0.00
2013-7-7,111.0,85.5,72.1,81.6,74.0,68.4,95,71,40,29.95,29.82,0,-999,0,0.00
2013-7-8,105.8,80.5,68.5,78.8,69.5,65.7,92,72,41,29.94,29.86,0,-999,0,0.00
2013-7-9,99.5,79.0,66.7,77.9,70.6,65.3,96,78,49,29.97,29.87,0,-999,0,0.00
2013-7-10,94.6,80.7,70.3,80.5,73.3,69.1,98,80,57,29.91,29.70,0,-999,0,0.00
2013-7-11,91.6,79.9,72.5,73.8,70.7,62.2,92,75,53,29.81,29.69,0,-999,0,0.00
2013-7-12,80.8,72.5,67.8,69.7,66.2,62.5,97,81,66,29.96,29.80,0,-999,0,0.00
2013-7-13,87.3,73.8,67.5,78.2,71.5,66.4,98,93,72,30.17,29.96,0,-999,0,0.00
2013-7-14,99.1,82.7,73.2,81.5,74.2,70.1,99,78,54,30.23,30.13,0,-999,0,0.00
2013-7-15,113.4,84.4,70.0,82.6,73.9,68.3,96,74,37,30.14,30.02,0,-999,0,0.00
2013-7-16,111.2,84.9,69.6,77.2,71.1,67.5,95,68,33,30.10,30.01,0,-999,0,0.00
2013-7-17,115.0,86.0,71.1,80.9,72.0,68.4,93,67,34,30.08,29.94,0,-999,0,0.00
2013-7-18,114.1,88.1,73.2,82.4,74.5,70.0,92,68,36,29.97,29.84,0,-999,0,0.00
2013-7-19,111.7,88.7,75.7,85.2,77.1,73.6,95,72,42,29.86,29.69,0,-999,0,0.00
2013-7-20,104.5,83.4,73.0,78.8,73.4,69.6,96,74,44,29.73,29.62,0,-999,0,0.00
2013-7-21,98.2,80.5,71.2,76.7,70.7,66.6,98,75,44,29.84,29.72,0,-999,0,0.00
2013-7-22,92.8,77.3,69.8,77.2,71.7,66.4,97,84,60,29.83,29.68,0,-999,0,0.00
2013-7-23,96.4,78.4,70.0,79.3,73.5,68.1,99,86,56,29.68,29.46,0,-999,0,0.00
2013-7-24,89.6,74.9,63.3,74.2,65.3,54.1,97,74,52,29.82,29.51,0,-999,0,0.00
2013-7-25,69.6,64.9,59.9,59.5,55.7,51.3,84,72,61,29.93,29.81,0,-999,0,0.00
2013-7-26,93.7,73.3,62.8,70.5,61.7,58.6,89,69,44,29.94,29.88,0,-999,0,0.00
2013-7-27,97.9,74.1,58.1,75.8,63.4,56.4,96,72,44,29.94,29.82,0,-999,0,0.00
2013-7-28,87.6,72.1,65.8,75.3,67.7,61.3,97,87,66,29.87,29.76,0,-999,0,0.00
2013-7-29,101.1,74.4,61.5,76.5,64.2,57.0,99,75,42,30.01,29.83,0,-999,0,0.00
2013-7-30,101.1,71.2,56.1,67.8,59.5,54.4,95,71,31,30.07,29.99,0,-999,0,0.00
2013-7-31,98.8,73.0,57.0,70.3,61.8,55.1,95,72,37,30.06,29.92,0,-999,0,0.00
2013-8-1,69.6,67.5,65.5,68.2,65.6,62.8,98,94,87,29.92,29.72,0,-999,0,0.00
2013-8-2,102.9,75.0,61.0,76.0,65.5,60.4,99,76,39,29.81,29.69,0,-999,0,0.00
2013-8-3,81.7,70.0,64.2,70.8,65.0,60.8,92,85,66,29.82,29.75,0,-999,0,0.00
2013-8-4,98.2,71.2,57.9,69.3,59.5,53.0,96,71,36,29.89,29.75,0,-999,0,0.00
2013-8-5,95.0,67.8,51.8,60.3,53.8,48.7,93,66,28,29.96,29.87,0,-999,0,0.00
2013-8-6,103.3,71.3,55.2,70.2,59.8,53.0,94,71,32,30.01,29.92,0,-999,0,0.00
2013-8-7,83.5,71.9,64.6,71.6,66.4,61.0,93,83,64,30.02,29.94,0,-999,0,0.00
2013-8-8,90.3,74.8,67.3,79.1,71.5,66.1,98,90,65,29.95,29.87,0,-999,0,0.00
2013-8-9,91.4,77.7,70.9,80.1,73.8,70.1,98,89,67,29.89,29.69,0,-999,0,0.00
2013-8-10,96.6,76.1,65.8,73.9,67.4,62.8,98,77,44,29.94,29.76,0,-999,0,0.00
2013-8-11,94.3,72.5,57.7,67.7,61.5,55.9,95,72,37,30.02,29.90,0,-999,0,0.00
2013-8-12,86.0,73.9,66.9,69.4,65.4,62.7,96,77,48,29.92,29.81,0,-999,0,0.00
2013-8-13,84.7,72.5,66.0,72.9,67.9,63.6,97,87,63,29.82,29.58,0,-999,0,0.00
2013-8-14,88.5,66.9,55.0,63.9,54.5,51.0,94,68,35,29.95,29.66,0,-999,0,0.00
2013-8-15,97.2,65.6,48.7,65.0,53.0,47.1,95,69,30,30.04,29.95,0,-999,0,0.00
2013-8-16,99.0,68.2,51.6,67.9,55.3,49.6,95,68,30,30.10,30.01,0,-999,0,0.00
2013-8-17,97.3,69.6,53.8,69.3,58.1,51.8,95,71,33,30.16,30.09,0,-999,0,0.00
2013-8-18,82.6,69.1,61.2,67.1,61.7,56.8,93,79,56,30.15,30.02,0,-999,0,0.00
2013-8-19,86.5,69.7,59.2,69.7,63.0,58.0,97,81,54,30.03,29.93,0,-999,0,0.00
2013-8-20,102.0,75.2,58.8,75.6,64.9,57.7,97,74,41,30.02,29.94,0,-999,0,0.00
2013-8-21,103.3,76.7,61.2,74.8,64.6,59.7,96,71,36,30.08,29.93,0,-999,0,0.00
2013-8-22,83.8,72.4,68.2,76.5,69.7,65.3,97,92,77,29.95,29.77,0,-999,0,0.00
2013-8-23,89.4,72.8,63.7,70.6,63.6,58.3,98,76,43,29.99,29.77,0,-999,0,0.00
2013-8-24,94.6,69.8,57.9,62.5,54.8,50.7,87,62,32,30.24,29.99,0,-999,0,0.00
2013-8-25,94.8,68.8,52.0,68.7,56.8,50.2,95,70,37,30.30,30.13,0,-999,0,0.00
2013-8-26,92.5,73.2,60.6,70.0,63.4,56.3,92,73,45,30.13,29.80,0,-999,0,0.00
2013-8-27,100.9,78.5,67.6,75.3,68.8,66.2,97,75,42,29.81,29.72,0,-999,0,0.00
2013-8-28,83.5,72.3,66.4,76.1,70.1,64.8,98,93,76,29.78,29.72,0,-999,0,0.00
2013-8-29,84.7,73.4,67.6,74.6,69.2,64.6,99,88,62,29.93,29.76,0,-999,0,0.00
2013-8-30,86.9,74.7,67.8,73.3,69.0,65.6,95,83,60,29.92,29.75,0,-999,0,0.00
2013-8-31,91.8,77.7,67.3,78.4,72.3,66.1,97,85,63,29.76,29.67,0,-999,0,0.00
2013-9-1,90.1,77.4,70.3,78.1,72.7,68.8,97,86,66,29.74,29.66,0,-999,0,0.00
2013-9-2,91.2,73.9,69.6,79.2,71.3,68.7,98,92,64,29.69,29.59,0,-999,0,0.00
2013-9-3,84.9,74.0,61.5,75.3,65.4,57.3,99,77,48,29.79,29.60,0,-999,0,0.00
2013-9-4,94.3,69.6,55.2,67.8,59.0,53.8,96,72,38,29.91,29.78,0,-999,0,0.00
2013-9-5,91.8,66.8,54.3,68.4,55.6,47.5,96,71,39,30.04,29.83,0,-999,0,0.00
2013-9-6,79.3,60.2,47.3,56.0,46.8,43.3,89,65,34,30.15,30.03,0,-999,0,0.00
2013-9-7,91.0,63.9,44.8,61.6,51.4,42.9,96,69,33,30.03,29.80,0,-999,0,0.00
2013-9-8,93.7,70.4,56.5,69.0,58.0,45.7,93,67,44,29.98,29.73,0,-999,0,0.00
2013-9-9,84.4,64.3,46.6,60.0,52.7,43.2,90,68,38,30.12,29.97,0,-999,0,0.00
2013-9-10,89.1,75.4,64.9,75.4,68.7,59.5,92,80,64,30.06,29.93,0,-999,0,0.00
2013-9-11,103.6,82.0,69.6,81.6,73.9,68.3,97,79,49,30.01,29.86,0,-999,0,0.00
2013-9-12,97.9,76.6,66.7,79.7,71.6,65.5,96,85,55,29.88,29.58,0,-999,0,0.00
2013-9-13,77.5,67.3,55.9,66.8,60.3,48.8,98,80,54,29.77,29.54,0,-999,0,0.00
2013-9-14,81.0,58.6,47.1,54.6,47.6,42.8,86,69,37,30.04,29.76,0,-999,0,0.00
2013-9-15,82.6,58.0,41.7,58.9,48.3,39.8,96,73,41,30.12,29.97,0,-999,0,0.00
2013-9-16,75.9,60.8,52.9,61.6,54.3,48.0,96,81,52,30.14,29.93,0,-999,0,0.00
2013-9-17,69.8,54.7,41.9,48.2,42.2,37.7,88,66,38,30.33,30.13,0,-999,0,0.00
2013-9-18,85.6,55.7,39.6,59.0,45.0,37.7,97,71,37,30.26,30.08,0,-999,0,0.00
2013-9-19,89.8,59.1,41.2,62.1,48.8,39.3,97,72,36,30.10,29.96,0,-999,0,0.00
2013-9-20,92.7,63.6,46.0,66.6,54.6,44.4,98,75,40,29.99,29.87,0,-999,0,0.00
2013-9-21,82.8,64.9,48.7,67.0,58.1,47.1,97,81,46,29.90,29.56,0,-999,0,0.00
2013-9-22,84.9,63.3,52.9,63.0,52.6,41.8,98,71,40,29.82,29.55,0,-999,0,0.00
2013-9-23,76.6,56.2,44.4,50.5,43.4,39.7,86,64,36,29.95,29.82,0,-999,0,0.00
2013-9-24,78.3,56.4,39.0,54.2,44.6,36.6,96,68,39,29.96,29.78,0,-999,0,0.00
2013-9-25,83.7,58.1,42.4,56.6,47.4,39.7,93,71,37,29.87,29.77,0,-999,0,0.00
2013-9-26,76.6,59.4,46.9,61.2,52.8,45.0,97,81,57,29.99,29.83,0,-999,0,0.00
2013-9-27,80.2,60.8,50.2,59.6,52.5,47.6,93,76,48,30.16,29.99,0,-999,0,0.00
2013-9-28,81.1,62.0,51.4,60.5,52.2,48.4,96,73,43,30.22,30.13,0,-999,0,0.00
2013-9-29,75.0,58.3,46.8,60.8,52.2,45.1,96,82,55,30.13,29.96,0,-999,0,0.00
2013-9-30,88.7,59.7,45.7,62.5,50.7,44.1,98,75,37,29.99,29.86,0,-999,0,0.00
2013-10-1,89.2,54.7,46.6,65.7,50.0,45.0,97,86,44,29.92,29.88,0,-999,0,0.00
2013-10-15,72.0,59.2,50.2,51.1,41.8,33.9,85,55,37,30.05,30.01,0,-999,0,0.00
2013-10-16,71.1,59.7,48.2,59.8,54.0,44.8,93,82,66,30.01,29.81,0,-999,0,0.00
2013-10-17,75.4,65.1,58.8,65.1,60.9,56.8,96,87,66,29.82,29.58,0,-999,0,0.00
2013-10-18,70.9,58.0,43.0,62.5,47.3,39.5,96,69,48,29.89,29.57,0,-999,0,0.00
2013-10-19,66.4,50.6,38.1,51.8,44.7,36.4,95,82,56,29.89,29.66,0,-999,0,0.00
2013-10-20,66.0,51.1,39.0,50.6,40.9,35.5,94,71,40,29.97,29.67,0,-999,0,0.00
2013-10-21,65.8,37.5,33.6,52.2,34.8,31.6,96,90,56,30.05,29.96,0,-999,0,0.00
2013-11-9,40.5,37.9,35.4,32.0,29.1,27.6,81,71,62,30.00,29.86,0,-999,0,0.00
2013-11-10,58.8,42.6,30.0,40.1,31.5,27.5,92,67,43,29.99,29.74,0,-999,0,0.00
2013-11-11,54.7,46.0,37.2,35.1,30.7,25.3,63,55,44,30.12,29.84,0,-999,0,0.00
2013-11-12,48.6,36.8,25.5,35.7,24.3,16.0,78,61,47,30.22,29.82,0,-999,0,0.00
2013-11-13,39.0,28.6,23.9,18.5,16.0,14.0,74,60,37,30.30,30.16,0,-999,0,0.00
2013-11-14,52.0,34.8,24.1,23.7,19.1,15.3,76,56,27,30.17,30.07,0,-999,0,0.00
2013-11-15,57.6,37.8,26.6,36.2,25.6,19.0,77,63,36,30.16,30.06,0,-999,0,0.00
2013-11-16,58.1,45.4,37.9,45.9,39.2,28.9,93,80,58,30.24,30.15,0,-999,0,0.00
2013-11-17,63.1,54.3,46.2,58.2,51.9,44.3,95,92,80,30.16,29.61,0,-999,0,0.00
2013-11-18,61.9,55.5,46.0,60.7,41.7,28.0,97,63,38,29.72,29.50,0,-999,0,0.00
2013-11-19,47.7,31.6,39.0,99.9,47.6,22.4,54,35,45,30.26,29.71,0,-999,0,0.00
2013-11-20,177.6,0.0,177.6,99.9,99.9,99.9,0,0,100,30.52,30.26,0,-999,0,0.00
2013-11-21,177.6,0.0,177.6,99.9,99.9,99.9,0,0,100,30.52,30.26,0,-999,0,0.00
2013-11-22,177.6,0.0,177.6,99.9,99.9,99.9,0,0,100,30.29,29.81,0,-999,0,0.00
2013-11-23,177.6,0.0,177.6,99.9,99.9,99.9,0,0,100,29.97,29.82,0,-999,0,0.00
2013-11-24,177.6,0.0,177.6,99.9,99.9,99.9,0,0,100,30.31,29.96,0,-999,0,0.00
2013-11-25,177.6,0.0,177.6,99.9,99.9,99.9,0,0,100,30.40,30.22,0,-999,0,0.00
2013-11-26,177.6,0.0,177.6,99.9,99.9,99.9,0,0,100,30.23,29.53,0,-999,0,0.00
2013-11-27,177.6,0.0,177.6,99.9,99.9,99.9,0,0,100,29.73,29.26,0,-999,0,0.00
2013-11-28,177.6,0.0,177.6,99.9,99.9,99.9,0,0,100,30.38,29.70,0,-999,0,0.00
2013-11-29,177.6,0.0,177.6,99.9,99.9,99.9,0,0,100,30.65,30.37,0,-999,0,0.00
2013-11-30,177.6,0.0,177.6,99.9,99.9,99.9,0,0,100,30.66,30.25,0,-999,0,0.00
2013-12-1,177.6,0.0,177.6,99.9,99.9,99.9,0,0,100,30.28,29.91,0,-999,0,0.00
2013-12-2,177.6,0.0,177.6,99.9,99.9,99.9,0,0,100,29.91,29.78,0,-999,0,0.00
2013-12-3,177.6,0.0,177.6,99.9,99.9,99.9,0,0,100,29.92,29.78,0,-999,0,0.00
2013-12-4,177.6,0.0,177.6,99.9,99.9,99.9,0,0,100,30.03,29.91,0,-999,0,0.00
2013-12-5,177.6,0.0,177.6,99.9,99.9,99.9,0,0,100,30.02,29.81,0,-999,0,0.00
2013-12-6,177.6,0.0,177.6,99.9,99.9,99.9,0,0,100,30.07,29.76,0,-999,0,0.00
2013-12-7,177.6,0.0,177.6,99.9,99.9,99.9,0,0,100,30.43,29.99,0,-999,0,0.00
2013-12-8,177.6,0.0,177.6,99.9,99.9,99.9,0,0,100,30.50,30.22,0,-999,0,0.00
2013-12-9,177.6,0.0,177.6,99.9,99.9,99.9,0,0,100,30.22,29.88,0,-999,0,0.00
2013-12-10,177.6,0.0,177.6,99.9,99.9,99.9,0,0,100,30.07,29.79,0,-999,0,0.00
2013-12-11,177.6,0.0,177.6,99.9,99.9,99.9,0,0,100,30.25,30.06,0,-999,0,0.00
2013-12-12,177.6,0.0,177.6,99.9,99.9,99.9,0,0,100,30.28,30.07,0,-999,0,0.00
2013-12-13,177.6,0.0,177.6,99.9,99.9,99.9,0,0,100,30.25,30.05,0,-999,0,0.00
2013-12-14,177.6,0.0,177.6,99.9,99.9,99.9,0,0,100,30.38,29.55,0,-999,0,0.00
2013-12-15,177.6,0.0,177.6,99.9,99.9,99.9,0,0,100,29.76,29.43,0,-999,0,0.00
2013-12-16,177.6,0.0,177.6,99.9,99.9,99.9,0,0,100,30.14,29.76,0,-999,0,0.00
2013-12-17,177.6,0.0,177.6,99.9,99.9,99.9,0,0,100,30.12,29.84,0,-999,0,0.00
2013-12-18,177.6,0.0,177.6,99.9,99.9,99.9,0,0,100,30.10,29.85,0,-999,0,0.00
2013-12-19,177.6,0.0,177.6,99.9,99.9,99.9,0,0,100,30.10,29.93,0,-999,0,0.00
2013-12-20,177.6,0.0,177.6,99.9,99.9,99.9,0,0,100,30.01,29.88,0,-999,0,0.00
2013-12-21,177.6,0.0,177.6,99.9,99.9,99.9,0,0,100,29.92,29.78,0,-999,0,0.00
2013-12-22,177.6,0.0,177.6,99.9,99.9,99.9,0,0,100,29.88,29.70,0,-999,0,0.00
2013-12-23,177.6,0.0,177.6,99.9,99.9,99.9,0,0,100,30.07,29.80,0,-999,0,0.00
2013-12-24,177.6,0.0,177.6,99.9,99.9,99.9,0,0,100,30.30,30.01,0,-999,0,0.00
2013-12-25,177.6,0.0,177.6,99.9,99.9,99.9,0,0,100,30.45,30.28,0,-999,0,0.00
2013-12-26,177.6,0.0,177.6,99.9,99.9,99.9,0,0,100,30.32,30.08,0,-999,0,0.00
2013-12-27,177.6,0.0,177.6,99.9,99.9,99.9,0,0,100,30.28,30.18,0,-999,0,0.00
2013-12-28,177.6,0.0,177.6,99.9,99.9,99.9,0,0,100,30.19,29.97,0,-999,0,0.00
2013-12-29,177.6,0.0,177.6,99.9,99.9,99.9,0,0,100,29.98,29.34,0,-999,0,0.00
2013-12-30,177.6,2.1,23.0,99.9,92.1,14.0,69,6,68,30.09,29.62,0,-999,0,0.00
2013-12-31,33.4,24.7,16.3,26.0,15.6,10.8,85,68,59,30.22,29.97,0,-999,0,0.00
2014-1-1,36.3,27.2,19.8,22.6,17.3,10.8,75,66,57,30.32,30.10,0,-999,0,0.00
2014-1-2,31.3,25.8,15.6,23.1,19.9,12.3,88,79,68,30.11,29.55,0,-999,0,0.00